Time;durP1;ratioP1;P1;durP2;ratioP2;P2;SDS_P1;SDS_P2;PMS_P1;PMS_P2;Temp;Humidity;BMP_temperature;BMP_pressure;BME280_temperature;BME280_humidity;BME280_pressure;Samples;Min_cycle;Max_cycle;Signal;HPM_P1;HPM_P2
2024/01/02 00:08:54;;;;;;;2.75;1.40;;;;;;;17.79;55.33;99789.53;20841530;28;20060;-71
2024/01/02 00:18:56;;;;;;;2.33;1.40;;;;;;;17.77;55.27;99772.72;20839611;28;20056;-71
2024/01/02 00:28:58;;;;;;;1.92;1.00;;;;;;;17.79;55.11;99746.47;20820701;28;20060;-70
2024/01/02 00:39:00;;;;;;;2.40;1.08;;;;;;;17.78;55.11;99723.25;20804306;28;20056;-71
2024/01/02 00:49:01;;;;;;;1.70;1.05;;;;;;;17.79;54.90;99681.00;20799128;28;20079;-71
2024/01/02 00:59:03;;;;;;;1.63;0.93;;;;;;;17.80;54.90;99650.38;20819242;28;20060;-71
2024/01/02 01:09:05;;;;;;;1.27;0.70;;;;;;;17.79;55.02;99628.03;20827286;28;20069;-71
2024/01/02 01:19:08;;;;;;;1.77;1.05;;;;;;;17.79;55.00;99586.78;20792019;28;20056;-70
2024/01/02 01:29:10;;;;;;;1.23;0.68;;;;;;;17.78;55.10;99559.03;20814269;28;20049;-71
2024/01/02 01:39:11;;;;;;;1.67;0.82;;;;;;;17.78;55.18;99540.19;20776720;28;20100;-71
2024/01/02 01:49:14;;;;;;;2.13;0.95;;;;;;;17.80;55.10;99505.03;20784410;28;20071;-71
2024/01/02 01:59:16;;;;;;;1.80;0.90;;;;;;;17.82;54.90;99487.69;20823486;28;20054;-71
2024/01/02 02:09:18;;;;;;;1.63;0.75;;;;;;;17.81;55.11;99437.56;20806905;28;20486;-71
2024/01/02 02:19:20;;;;;;;1.50;0.70;;;;;;;17.78;55.11;99413.69;20739943;28;20049;-71
2024/01/02 02:29:22;;;;;;;1.38;0.70;;;;;;;17.81;55.25;99382.88;20808141;28;20061;-71
2024/01/02 02:39:24;;;;;;;1.83;0.70;;;;;;;17.84;55.01;99347.53;20790410;28;20045;-70
2024/01/02 02:49:26;;;;;;;1.42;0.70;;;;;;;17.83;55.55;99309.03;20798432;28;20052;-71
2024/01/02 02:59:28;;;;;;;0.90;0.65;;;;;;;17.84;55.58;99266.78;20854826;28;20048;-70
2024/01/02 03:09:30;;;;;;;2.10;1.20;;;;;;;17.85;55.66;99236.16;20818659;28;20049;-71
2024/01/02 03:19:31;;;;;;;2.15;0.80;;;;;;;17.86;55.56;99196.63;20840378;28;20087;-71
2024/01/02 03:29:33;;;;;;;1.70;0.80;;;;;;;17.89;55.69;99172.03;20842775;28;20714;-70
2024/01/02 03:39:35;;;;;;;1.92;0.88;;;;;;;17.93;55.81;99127.59;20838979;28;20120;-71
2024/01/02 03:49:37;;;;;;;1.70;0.70;;;;;;;17.95;55.71;99071.69;20835191;28;20076;-70
2024/01/02 03:59:38;;;;;;;2.05;0.73;;;;;;;17.96;55.62;99025.75;20855267;28;20053;-71
2024/01/02 04:09:41;;;;;;;1.33;0.50;;;;;;;18.06;55.49;98997.75;20843211;28;20067;-70
2024/01/02 04:19:42;;;;;;;2.25;0.73;;;;;;;18.10;55.23;98978.34;20841705;28;20049;-71
2024/01/02 04:29:44;;;;;;;0.75;0.50;;;;;;;18.04;55.60;98941.38;20794534;28;20515;-70
2024/01/02 04:39:46;;;;;;;1.00;0.65;;;;;;;18.08;55.49;98910.38;20820363;28;20520;-70
2024/01/02 04:49:47;;;;;;;0.70;0.40;;;;;;;18.13;55.40;98879.38;20806899;28;20136;-71
2024/01/02 04:59:49;;;;;;;1.52;0.68;;;;;;;18.14;55.35;98860.34;20802066;28;20072;-71
2024/01/02 05:09:51;;;;;;;2.40;0.60;;;;;;;18.17;55.60;98832.22;20805221;28;20195;-71
2024/01/02 05:19:53;;;;;;;1.08;0.52;;;;;;;18.21;55.48;98801.19;20829557;28;20052;-70
2024/01/02 05:29:54;;;;;;;0.90;0.50;;;;;;;18.25;55.28;98770.16;20833524;28;20056;-71
2024/01/02 05:39:56;;;;;;;0.60;0.40;;;;;;;18.24;55.32;98736.16;20844528;28;20052;-71
2024/01/02 05:49:58;;;;;;;0.88;0.50;;;;;;;18.27;55.15;98711.53;20857339;28;20512;-70
2024/01/02 06:00:00;;;;;;;0.45;0.30;;;;;;;18.20;55.26;98687.22;20810517;28;20064;-70
2024/01/02 06:10:02;;;;;;;0.55;0.40;;;;;;;18.29;55.39;98705.94;20844044;28;20412;-70
2024/01/02 06:20:04;;;;;;;0.47;0.30;;;;;;;18.24;55.54;98699.28;20832887;28;20501;-70
2024/01/02 06:30:07;;;;;;;0.52;0.25;;;;;;;18.32;55.49;98674.06;20830882;28;20045;-70
2024/01/02 06:40:09;;;;;;;0.30;0.30;;;;;;;18.31;55.75;98677.78;20823863;28;20393;-70
2024/01/02 06:50:11;;;;;;;0.40;0.25;;;;;;;18.34;55.93;98665.78;20852540;28;20232;-70
2024/01/02 07:00:13;;;;;;;0.25;0.20;;;;;;;18.32;56.11;98673.22;20842581;28;20124;-70
2024/01/02 07:10:15;;;;;;;0.65;0.30;;;;;;;18.35;56.13;98662.91;20846494;28;20049;-70
2024/01/02 07:20:17;;;;;;;0.10;0.10;;;;;;;18.33;56.45;98664.13;20821845;28;20056;-70
2024/01/02 07:30:20;;;;;;;0.70;0.25;;;;;;;18.33;56.66;98670.34;20835512;28;20055;-70
2024/01/02 07:40:21;;;;;;;0.20;0.20;;;;;;;18.37;56.55;98660.84;20816459;28;20048;-70
2024/01/02 07:50:23;;;;;;;0.20;0.20;;;;;;;18.35;57.11;98679.06;20826560;28;20079;-70
2024/01/02 08:00:26;;;;;;;0.10;0.10;;;;;;;18.32;57.33;98674.06;20818726;28;20053;-71
2024/01/02 08:10:28;;;;;;;0.38;0.15;;;;;;;18.31;57.58;98675.09;20834001;28;20049;-71
2024/01/02 08:20:30;;;;;;;0.70;0.30;;;;;;;18.22;58.49;98684.34;20818917;28;20559;-71
2024/01/02 08:30:32;;;;;;;0.25;0.20;;;;;;;18.24;58.71;98682.28;20841938;28;20520;-71
2024/01/02 08:40:34;;;;;;;0.35;0.20;;;;;;;18.55;58.64;98697.25;20830935;28;20053;-70
2024/01/02 08:50:36;;;;;;;0.57;0.55;;;;;;;18.86;58.25;98704.13;20814950;28;20053;-69
2024/01/02 09:00:38;;;;;;;1.17;0.30;;;;;;;19.09;58.64;98716.56;20850505;28;20142;-68
2024/01/02 09:10:40;;;;;;;0.80;0.30;;;;;;;19.31;58.80;98719.19;20836200;28;20053;-70
2024/01/02 09:20:42;;;;;;;0.95;0.30;;;;;;;19.50;59.05;98731.97;20807932;28;20046;-73
2024/01/02 09:30:44;;;;;;;1.27;0.35;;;;;;;19.68;59.07;98736.81;20826530;28;20068;-69
2024/01/02 09:40:59;;;;;;;0.30;0.30;;;;;;;19.79;59.12;98738.09;20814730;28;20049;-70
2024/01/02 09:51:39;;;;;;;1.33;0.45;;;;;;;19.94;58.95;98743.38;20851227;28;20053;-70
2024/01/02 10:01:57;;;;;;;2.08;0.70;;;;;;;20.07;58.68;98760.66;20807976;28;20049;-70
2024/01/02 10:12:03;;;;;;;1.35;0.60;;;;;;;20.14;58.72;98767.75;20818426;28;20487;-69
2024/01/02 10:22:18;;;;;;;2.90;0.57;;;;;;;20.20;58.95;98757.16;20823235;28;20498;-70
2024/01/02 10:32:46;;;;;;;1.48;0.63;;;;;;;20.28;58.83;98762.38;20821381;28;20755;-69
2024/01/02 10:43:25;;;;;;;2.03;0.70;;;;;;;20.34;59.07;98767.00;20811491;28;20516;-69
2024/01/02 10:53:30;;;;;;;2.13;0.60;;;;;;;20.39;58.99;98758.25;20775349;28;20548;-72
2024/01/02 11:03:48;;;;;;;1.80;0.80;;;;;;;20.32;59.32;98739.31;20797601;28;20068;-71
2024/01/02 11:13:52;;;;;;;4.35;1.55;;;;;;;20.27;59.94;98733.69;20782655;28;20432;-72
2024/01/02 11:23:56;;;;;;;2.53;1.20;;;;;;;20.28;59.58;98719.16;20803883;28;20077;-76
2024/01/02 11:34:13;;;;;;;4.67;1.33;;;;;;;20.29;59.86;98720.81;20817401;28;20678;-72
2024/01/02 11:44:33;;;;;;;2.20;0.95;;;;;;;20.31;60.01;98699.00;20813369;28;20074;-73
2024/01/02 11:54:43;;;;;;;2.45;0.80;;;;;;;20.32;59.80;98682.56;20790266;28;20083;-71
2024/01/02 12:05:09;;;;;;;2.67;0.90;;;;;;;20.32;60.28;98679.06;20789451;28;20089;-70
2024/01/02 12:15:39;;;;;;;2.67;1.00;;;;;;;20.32;60.74;98654.72;20743185;28;20691;-72
2024/01/02 12:25:43;;;;;;;3.58;1.10;;;;;;;20.35;61.25;98638.09;20814965;28;20105;-73
2024/01/02 12:35:54;;;;;;;3.53;1.10;;;;;;;20.34;61.54;98610.25;20807459;28;20153;-72
2024/01/02 12:46:02;;;;;;;5.03;1.70;;;;;;;20.36;61.94;98602.78;20797152;28;20187;-73
2024/01/02 12:56:06;;;;;;;3.78;1.20;;;;;;;20.38;62.33;98586.34;20796003;28;20139;-73
2024/01/02 13:06:09;;;;;;;4.65;1.80;;;;;;;20.41;62.31;98573.25;20808309;28;20412;-73
2024/01/02 13:16:11;;;;;;;2.60;1.20;;;;;;;20.41;62.46;98537.28;20788661;28;20417;-75
2024/01/02 13:26:13;;;;;;;5.45;1.83;;;;;;;20.41;63.19;98521.91;20800025;28;20851;-76
2024/01/02 13:36:15;;;;;;;3.58;1.60;;;;;;;20.41;63.76;98496.75;20804160;28;20056;-76
2024/01/02 13:46:21;;;;;;;4.05;1.42;;;;;;;20.41;63.73;98484.06;20823286;28;20053;-76
2024/01/02 13:56:23;;;;;;;4.68;1.83;;;;;;;20.34;63.91;98442.75;20806881;28;20048;-79
2024/01/02 14:06:25;;;;;;;3.13;1.65;;;;;;;20.39;64.24;98436.69;20813212;28;20781;-72
2024/01/02 14:16:27;;;;;;;5.38;1.80;;;;;;;20.47;64.75;98428.31;20804524;28;20130;-75
2024/01/02 14:26:40;;;;;;;12.30;4.45;;;;;;;20.46;65.41;98423.16;20806617;28;20060;-73
2024/01/02 14:37:12;;;;;;;7.72;2.95;;;;;;;20.45;65.98;98410.69;20802847;28;20057;-70
2024/01/02 14:47:49;;;;;;;8.13;2.40;;;;;;;20.38;65.88;98400.75;20804943;28;20053;-73
2024/01/02 14:58:00;;;;;;;10.98;3.35;;;;;;;20.33;66.49;98365.44;20813140;28;20051;-70
2024/01/02 15:08:28;;;;;;;8.43;2.60;;;;;;;20.31;70.31;98336.94;20812903;28;20631;-70
2024/01/02 15:18:33;;;;;;;6.72;2.22;;;;;;;20.35;69.43;98314.69;20817576;28;20048;-69
2024/01/02 15:28:37;;;;;;;6.35;2.45;;;;;;;20.44;68.38;98269.31;20796904;28;20140;-69
2024/01/02 15:38:51;;;;;;;5.75;1.90;;;;;;;20.48;68.51;98257.03;20794760;28;20834;-70
2024/01/02 15:48:56;;;;;;;;;;;;;;;20.41;68.38;98231.94;20804812;28;20420;-67
2024/01/02 15:59:16;;;;;;;7.00;2.30;;;;;;;20.26;70.59;98213.31;20803091;28;20293;-63
2024/01/02 16:09:21;;;;;;;15.80;6.38;;;;;;;20.16;73.69;98158.94;20788072;28;20045;-64
2024/01/02 16:19:27;;;;;;;;;;;;;;;20.12;77.53;98145.88;20789990;28;20042;-64
2024/01/02 16:29:50;;;;;;;9.00;4.25;;;;;;;20.22;78.77;98101.34;20801270;28;19925;-64
2024/01/02 16:39:53;;;;;;;6.35;3.50;;;;;;;20.24;78.22;98064.13;20814875;28;20053;-64
2024/01/02 16:49:55;;;;;;;5.45;2.47;;;;;;;20.24;77.05;98039.81;20808191;28;20057;-67
2024/01/02 17:00:01;;;;;;;4.07;1.90;;;;;;;20.24;76.42;98010.09;20772935;28;20072;-65
2024/01/02 17:10:05;;;;;;;4.32;1.75;;;;;;;20.33;75.85;97975.53;20795127;28;20053;-64
2024/01/02 17:20:08;;;;;;;3.07;1.97;;;;;;;20.35;75.18;97954.53;20804422;28;20052;-64
2024/01/02 17:30:13;;;;;;;2.13;1.00;;;;;;;20.36;74.77;97921.88;20808865;28;20068;-65
2024/01/02 17:40:15;;;;;;;2.10;0.87;;;;;;;20.04;74.60;97843.69;20759187;28;20466;-65
2024/01/02 17:50:17;;;;;;;1.58;0.68;;;;;;;20.31;74.16;97848.78;20785875;28;20050;-65
2024/01/02 18:00:21;;;;;;;2.17;0.77;;;;;;;20.19;74.03;97812.78;20821083;28;20049;-63
2024/01/02 18:11:07;;;;;;;1.55;1.00;;;;;;;20.01;74.08;97787.44;20819945;28;20297;-64
2024/01/02 18:21:19;;;;;;;2.15;0.85;;;;;;;19.91;74.07;97754.75;20819511;28;20135;-70
2024/01/02 18:31:34;;;;;;;2.05;0.73;;;;;;;19.88;73.76;97749.75;20828624;28;20053;-65
2024/01/02 18:41:37;;;;;;;2.83;1.40;;;;;;;19.82;73.59;97744.22;20816884;28;20053;-64
2024/01/02 18:51:41;;;;;;;0.82;0.50;;;;;;;19.77;72.69;97721.69;20827696;28;20050;-63
2024/01/02 19:01:51;;;;;;;1.08;0.45;;;;;;;19.67;72.46;97689.81;20844295;28;20053;-64
2024/01/02 19:12:06;;;;;;;0.93;0.55;;;;;;;19.58;72.05;97700.06;20841597;28;20057;-64
2024/01/02 19:22:09;;;;;;;1.27;0.80;;;;;;;19.36;71.82;97678.13;20835105;28;20095;-64
2024/01/02 19:32:11;;;;;;;1.65;0.57;;;;;;;19.40;71.95;97700.91;20835205;28;20398;-64
2024/01/02 19:42:13;;;;;;;0.77;0.52;;;;;;;19.39;71.61;97685.75;20809123;28;20056;-64
2024/01/02 19:52:15;;;;;;;1.20;0.55;;;;;;;19.37;71.44;97661.72;20809765;28;20108;-64
2024/01/02 20:02:40;;;;;;;1.75;0.50;;;;;;;19.34;71.15;97677.53;20836086;28;20052;-64
2024/01/02 20:12:58;;;;;;;0.95;0.50;;;;;;;19.28;71.05;97653.09;20830393;28;20497;-64
2024/01/02 20:23:01;;;;;;;1.70;0.70;;;;;;;19.22;70.67;97651.31;20850253;28;20048;-64
2024/01/02 20:33:04;;;;;;;2.10;0.93;;;;;;;19.11;70.84;97647.47;20836422;28;20751;-64
2024/01/02 20:43:36;;;;;;;1.55;0.63;;;;;;;19.01;70.55;97649.88;20831399;28;20136;-64
2024/01/02 20:53:42;;;;;;;3.83;1.10;;;;;;;19.00;73.48;97648.22;20846040;28;20049;-63
2024/01/02 21:04:02;;;;;;;2.95;0.90;;;;;;;19.03;74.75;97652.34;20872089;28;20072;-64
2024/01/02 21:14:05;;;;;;;1.63;1.00;;;;;;;19.05;74.78;97642.97;20838337;28;20053;-64
2024/01/02 21:24:30;;;;;;;2.95;0.95;;;;;;;19.07;73.67;97642.78;20826997;28;20053;-64
2024/01/02 21:34:32;;;;;;;;;;;;;;;19.07;73.18;97626.59;20818005;28;20077;-65
2024/01/02 21:44:39;;;;;;;1.80;0.70;;;;;;;19.03;72.70;97649.66;20827094;28;19935;-64
2024/01/02 21:54:43;;;;;;;3.50;1.00;;;;;;;19.02;72.22;97634.53;20832631;28;20045;-64
2024/01/02 22:04:45;;;;;;;3.42;1.10;;;;;;;18.99;71.86;97606.94;20831101;28;20065;-64
2024/01/02 22:14:46;;;;;;;3.08;0.73;;;;;;;19.00;71.41;97615.88;20824637;28;20045;-63
2024/01/02 22:24:54;;;;;;;2.00;0.90;;;;;;;18.96;70.79;97614.66;20829740;28;20053;-64
2024/01/02 22:34:58;;;;;;;1.70;0.73;;;;;;;18.94;70.43;97624.81;20839569;28;20056;-64
2024/01/02 22:45:00;;;;;;;3.22;0.95;;;;;;;18.91;70.21;97655.72;20842801;28;20053;-64
2024/01/02 22:55:02;;;;;;;1.55;0.65;;;;;;;18.90;69.60;97653.28;20831518;28;20063;-64
2024/01/02 23:05:05;;;;;;;2.70;0.88;;;;;;;18.90;68.93;97664.88;20806014;28;20045;-64
2024/01/02 23:15:16;;;;;;;2.15;0.70;;;;;;;18.85;68.77;97645.84;20811835;28;20061;-64
2024/01/02 23:25:18;;;;;;;3.78;0.65;;;;;;;18.81;68.93;97672.44;20827366;28;20052;-64
2024/01/02 23:35:20;;;;;;;1.73;0.70;;;;;;;18.67;68.45;97658.25;20834111;28;20053;-64
2024/01/02 23:45:32;;;;;;;2.28;0.60;;;;;;;18.77;68.00;97700.03;20827448;28;20052;-63
2024/01/02 23:55:35;;;;;;;2.15;0.68;;;;;;;18.74;67.49;97684.31;20803365;28;20453;-63
